createdAt,value
2023-04-09T00:00:36.546Z,1020.00
2023-04-09T00:01:36.568Z,1019.94
2023-04-09T00:02:36.559Z,1019.98
2023-04-09T00:03:36.579Z,1019.95
2023-04-09T00:04:36.540Z,1020.02
2023-04-09T00:05:36.494Z,1019.93
2023-04-09T00:06:36.495Z,1019.92
2023-04-09T00:07:36.476Z,1019.96
2023-04-09T00:08:36.462Z,1019.94
2023-04-09T00:09:36.460Z,1020.03
2023-04-09T00:10:36.460Z,1019.90
2023-04-09T00:11:36.431Z,1020.03
2023-04-09T00:12:36.428Z,1020.02
2023-04-09T00:13:39.679Z,1019.91
2023-04-09T00:14:36.395Z,1020.00
2023-04-09T00:15:36.390Z,1020.01
2023-04-09T00:16:36.433Z,1020.02
2023-04-09T00:17:36.380Z,1019.94
2023-04-09T00:18:36.369Z,1020.01
2023-04-09T00:19:36.335Z,1020.00
2023-04-09T00:20:36.329Z,1019.97
2023-04-09T00:21:36.315Z,1020.02
2023-04-09T00:22:36.340Z,1020.02
2023-04-09T00:23:36.295Z,1019.95
2023-04-09T00:24:36.282Z,1020.00
2023-04-09T00:25:36.272Z,1019.96
2023-04-09T00:26:36.290Z,1019.98
2023-04-09T00:27:36.258Z,1020.01
2023-04-09T00:28:36.259Z,1019.99
2023-04-09T00:29:36.228Z,1019.99
2023-04-09T00:30:36.224Z,1019.98
2023-04-09T00:31:36.264Z,1019.94
2023-04-09T00:32:36.215Z,1019.91
2023-04-09T00:33:36.194Z,1019.98
2023-04-09T00:34:36.196Z,1019.93
2023-04-09T00:35:36.227Z,1019.96
2023-04-09T00:36:36.151Z,1019.89
2023-04-09T00:37:36.168Z,1019.90
2023-04-09T00:38:36.128Z,1019.90
2023-04-09T00:39:36.137Z,1019.88
2023-04-09T00:40:36.106Z,1019.94
2023-04-09T00:41:36.098Z,1019.89
2023-04-09T00:42:36.107Z,1019.87
2023-04-09T00:43:36.074Z,1019.90
2023-04-09T00:44:36.083Z,1019.88
2023-04-09T00:45:36.115Z,1019.88
2023-04-09T00:46:36.040Z,1019.84
2023-04-09T00:47:36.114Z,1019.88
2023-04-09T00:48:36.022Z,1019.86
2023-04-09T00:49:36.022Z,1019.89
2023-04-09T00:50:36.005Z,1019.86
2023-04-09T00:51:36.000Z,1019.84
2023-04-09T00:52:35.972Z,1019.83
2023-04-09T00:53:35.959Z,1019.88
2023-04-09T00:54:35.949Z,1019.87
2023-04-09T00:55:35.945Z,1019.92
2023-04-09T00:56:35.938Z,1019.84
2023-04-09T00:57:35.947Z,1019.93
2023-04-09T00:58:35.938Z,1019.89
2023-04-09T00:59:35.898Z,1019.85
2023-04-09T01:00:35.918Z,1019.88
2023-04-09T01:01:36.066Z,1019.85
2023-04-09T01:02:36.057Z,1019.88
2023-04-09T01:03:35.981Z,1019.90
2023-04-09T01:04:35.838Z,1019.85
2023-04-09T01:05:35.829Z,1019.88
2023-04-09T01:06:35.821Z,1019.83
2023-04-09T01:07:35.824Z,1019.86
2023-04-09T01:08:35.792Z,1019.81
2023-04-09T01:09:35.782Z,1019.82
2023-04-09T01:10:35.797Z,1019.81
2023-04-09T01:11:35.768Z,1019.78
2023-04-09T01:12:35.752Z,1019.79
2023-04-09T01:13:35.748Z,1019.80
2023-04-09T01:14:35.747Z,1019.82
2023-04-09T01:15:35.731Z,1019.75
2023-04-09T01:16:35.736Z,1019.76
2023-04-09T01:17:35.746Z,1019.77
2023-04-09T01:18:35.687Z,1019.77
2023-04-09T01:19:35.674Z,1019.71
2023-04-09T01:20:35.664Z,1019.81
2023-04-09T01:21:35.660Z,1019.78
2023-04-09T01:22:35.633Z,1019.82
2023-04-09T01:23:35.625Z,1019.81
2023-04-09T01:24:35.612Z,1019.80
2023-04-09T01:25:35.615Z,1019.76
2023-04-09T01:26:35.607Z,1019.78
2023-04-09T01:27:35.581Z,1019.75
2023-04-09T01:28:35.575Z,1019.63
2023-04-09T01:29:35.561Z,1019.67
2023-04-09T01:30:35.615Z,1019.69
2023-04-09T01:31:35.557Z,1019.67
2023-04-09T01:32:35.559Z,1019.73
2023-04-09T01:33:35.514Z,1019.78
2023-04-09T01:34:35.500Z,1019.68
2023-04-09T01:35:35.567Z,1019.74
2023-04-09T01:36:35.504Z,1019.62
2023-04-09T01:37:35.468Z,1019.78
2023-04-09T01:38:35.456Z,1019.71
2023-04-09T01:39:35.447Z,1019.70
2023-04-09T01:40:35.435Z,1019.74
2023-04-09T01:41:35.443Z,1019.68
2023-04-09T01:42:35.429Z,1019.77
2023-04-09T01:43:35.417Z,1019.72
2023-04-09T01:44:35.388Z,1019.70
2023-04-09T01:45:35.381Z,1019.68
2023-04-09T01:46:35.475Z,1019.64
2023-04-09T01:47:35.413Z,1019.63
2023-04-09T01:48:35.358Z,1019.64
2023-04-09T01:49:35.340Z,1019.67
2023-04-09T01:50:35.345Z,1019.60
2023-04-09T01:51:35.317Z,1019.58
2023-04-09T01:52:35.320Z,1019.64
2023-04-09T01:53:35.295Z,1019.61
2023-04-09T01:54:35.278Z,1019.60
2023-04-09T01:55:35.293Z,1019.57
2023-04-09T01:56:35.261Z,1019.62
2023-04-09T01:57:35.271Z,1019.59
2023-04-09T01:58:35.243Z,1019.63
2023-04-09T01:59:35.243Z,1019.55
2023-04-09T02:00:35.214Z,1019.58
2023-04-09T02:01:35.340Z,1019.62
2023-04-09T02:02:35.380Z,1019.61
2023-04-09T02:03:35.232Z,1019.59
2023-04-09T02:04:35.173Z,1019.62
2023-04-09T02:05:35.172Z,1019.64
2023-04-09T02:06:35.147Z,1019.53
2023-04-09T02:07:35.149Z,1019.65
2023-04-09T02:08:35.135Z,1019.57
2023-04-09T02:09:35.126Z,1019.58
2023-04-09T02:10:35.108Z,1019.59
2023-04-09T02:11:35.100Z,1019.63
2023-04-09T02:12:35.087Z,1019.57
2023-04-09T02:13:35.101Z,1019.60
2023-04-09T02:14:35.058Z,1019.56
2023-04-09T02:15:35.102Z,1019.64
2023-04-09T02:16:35.049Z,1019.58
2023-04-09T02:17:35.061Z,1019.53
2023-04-09T02:18:35.044Z,1019.56
2023-04-09T02:19:35.043Z,1019.52
2023-04-09T02:20:34.997Z,1019.52
2023-04-09T02:21:34.992Z,1019.54
2023-04-09T02:22:34.975Z,1019.57
2023-04-09T02:23:34.989Z,1019.50
2023-04-09T02:24:34.948Z,1019.53
2023-04-09T02:25:34.960Z,1019.54
2023-04-09T02:26:34.927Z,1019.52
2023-04-09T02:27:34.923Z,1019.55
2023-04-09T02:28:34.927Z,1019.54
2023-04-09T02:29:34.932Z,1019.56
2023-04-09T02:30:34.887Z,1019.54
2023-04-09T02:31:34.942Z,1019.51
2023-04-09T02:32:34.883Z,1019.53
2023-04-09T02:33:34.852Z,1019.56
2023-04-09T02:34:34.864Z,1019.57
2023-04-09T02:35:34.893Z,1019.50
2023-04-09T02:36:34.815Z,1019.46
2023-04-09T02:37:34.816Z,1019.54
2023-04-09T02:38:34.799Z,1019.54
2023-04-09T02:39:34.800Z,1019.54
2023-04-09T02:40:34.779Z,1019.52
2023-04-09T02:41:34.762Z,1019.52
2023-04-09T02:42:34.748Z,1019.42
2023-04-09T02:43:34.750Z,1019.49
2023-04-09T02:44:34.738Z,1019.42
2023-04-09T02:45:34.723Z,1019.46
2023-04-09T02:46:34.765Z,1019.43
2023-04-09T02:47:34.736Z,1019.41
2023-04-09T02:48:34.685Z,1019.39
2023-04-09T02:49:34.703Z,1019.40
2023-04-09T02:50:34.684Z,1019.37
2023-04-09T02:51:34.661Z,1019.41
2023-04-09T02:52:34.669Z,1019.36
2023-04-09T02:53:34.643Z,1019.33
2023-04-09T02:54:34.623Z,1019.36
2023-04-09T02:55:34.625Z,1019.32
2023-04-09T02:56:34.598Z,1019.36
2023-04-09T02:57:34.596Z,1019.31
2023-04-09T02:58:34.584Z,1019.32
2023-04-09T02:59:34.570Z,1019.28
2023-04-09T03:00:34.559Z,1019.28
2023-04-09T03:01:34.667Z,1019.32
2023-04-09T03:02:34.664Z,1019.26
2023-04-09T03:03:34.604Z,1019.29
2023-04-09T03:04:34.509Z,1019.30
2023-04-09T03:05:34.502Z,1019.25
2023-04-09T03:06:34.539Z,1019.29
2023-04-09T03:07:34.486Z,1019.28
2023-04-09T03:08:34.477Z,1019.28
2023-04-09T03:09:34.460Z,1019.23
2023-04-09T03:10:34.444Z,1019.28
2023-04-09T03:11:34.438Z,1019.28
2023-04-09T03:12:34.436Z,1019.22
2023-04-09T03:13:34.420Z,1019.21
2023-04-09T03:14:35.383Z,1019.16
2023-04-09T03:15:34.425Z,1019.22
2023-04-09T03:16:34.377Z,1019.17
2023-04-09T03:17:34.394Z,1019.20
2023-04-09T03:18:34.400Z,1019.23
2023-04-09T03:19:34.357Z,1019.19
2023-04-09T03:20:34.340Z,1019.27
2023-04-09T03:21:34.323Z,1019.18
2023-04-09T03:22:34.331Z,1019.26
2023-04-09T03:23:34.307Z,1019.16
2023-04-09T03:24:34.299Z,1019.13
2023-04-09T03:25:34.285Z,1019.16
2023-04-09T03:26:34.266Z,1019.13
2023-04-09T03:27:34.257Z,1019.23
2023-04-09T03:28:34.251Z,1019.11
2023-04-09T03:29:34.253Z,1019.18
2023-04-09T03:30:34.227Z,1019.10
2023-04-09T03:31:34.246Z,1019.13
2023-04-09T03:32:34.244Z,1019.12
2023-04-09T03:33:34.213Z,1019.12
2023-04-09T03:34:34.198Z,1019.15
2023-04-09T03:35:34.201Z,1019.12
2023-04-09T03:36:34.160Z,1019.08
2023-04-09T03:37:34.162Z,1019.08
2023-04-09T03:38:34.156Z,1019.05
2023-04-09T03:39:34.138Z,1019.12
2023-04-09T03:40:34.113Z,1019.06
2023-04-09T03:41:34.105Z,1019.06
2023-04-09T03:42:34.103Z,1019.13
2023-04-09T03:43:34.087Z,1019.10
2023-04-09T03:44:34.070Z,1019.03
2023-04-09T03:45:34.073Z,1019.02
2023-04-09T03:46:34.068Z,1019.05
2023-04-09T03:47:34.060Z,1019.08
2023-04-09T03:48:34.024Z,1019.01
2023-04-09T03:49:34.015Z,1019.08
2023-04-09T03:50:34.017Z,1019.06
2023-04-09T03:51:33.993Z,1019.06
2023-04-09T03:52:33.986Z,1019.06
2023-04-09T03:53:33.989Z,1019.09
2023-04-09T03:54:33.977Z,1019.09
2023-04-09T03:55:33.969Z,1019.05
2023-04-09T03:56:33.943Z,1019.10
2023-04-09T03:57:33.933Z,1019.10
2023-04-09T03:58:33.911Z,1019.11
2023-04-09T03:59:33.910Z,1019.05
2023-04-09T04:00:33.886Z,1019.06
2023-04-09T04:01:33.994Z,1019.06
2023-04-09T04:02:34.075Z,1019.04
2023-04-09T04:03:34.014Z,1019.06
2023-04-09T04:04:33.980Z,1019.07
2023-04-09T04:05:33.833Z,1019.16
2023-04-09T04:06:33.826Z,1019.12
2023-04-09T04:07:33.861Z,1019.14
2023-04-09T04:08:33.805Z,1019.09
2023-04-09T04:09:33.825Z,1019.10
2023-04-09T04:10:33.797Z,1019.13
2023-04-09T04:11:33.776Z,1019.07
2023-04-09T04:12:33.770Z,1019.12
2023-04-09T04:13:33.744Z,1019.11
2023-04-09T04:14:33.741Z,1019.16
2023-04-09T04:15:33.734Z,1019.26
2023-04-09T04:16:33.748Z,1019.11
2023-04-09T04:17:33.721Z,1019.23
2023-04-09T04:18:33.685Z,1019.17
2023-04-09T04:19:33.689Z,1019.21
2023-04-09T04:20:33.672Z,1019.19
2023-04-09T04:21:33.654Z,1019.19
2023-04-09T04:22:33.639Z,1019.24
2023-04-09T04:23:33.643Z,1019.25
2023-04-09T04:24:33.620Z,1019.25
2023-04-09T04:25:33.614Z,1019.22
2023-04-09T04:26:33.621Z,1019.16
2023-04-09T04:27:33.603Z,1019.22
2023-04-09T04:28:33.580Z,1019.20
2023-04-09T04:29:33.565Z,1019.16
2023-04-09T04:30:33.562Z,1019.14
2023-04-09T04:31:33.579Z,1019.18
2023-04-09T04:32:33.571Z,1019.09
2023-04-09T04:33:33.528Z,1019.11
2023-04-09T04:34:33.505Z,1019.16
2023-04-09T04:35:33.522Z,1019.12
2023-04-09T04:36:33.502Z,1019.09
2023-04-09T04:37:33.480Z,1019.10
2023-04-09T04:38:33.474Z,1019.09
2023-04-09T04:39:33.452Z,1019.14
2023-04-09T04:40:33.438Z,1019.14
2023-04-09T04:41:33.439Z,1019.22
2023-04-09T04:42:33.438Z,1019.15
2023-04-09T04:43:33.409Z,1019.13
2023-04-09T04:44:33.433Z,1019.23
2023-04-09T04:45:33.389Z,1019.13
2023-04-09T04:46:33.395Z,1019.20
2023-04-09T04:47:33.376Z,1019.19
2023-04-09T04:48:33.347Z,1019.16
2023-04-09T04:49:33.346Z,1019.19
2023-04-09T04:50:33.334Z,1019.16
2023-04-09T04:51:33.332Z,1019.10
2023-04-09T04:52:33.313Z,1019.17
2023-04-09T04:53:40.929Z,1019.15
2023-04-09T04:54:33.281Z,1019.15
2023-04-09T04:55:33.269Z,1019.12
2023-04-09T04:56:33.266Z,1019.09
2023-04-09T04:57:33.278Z,1019.14
2023-04-09T04:58:33.258Z,1019.18
2023-04-09T04:59:33.251Z,1019.09
2023-04-09T05:00:33.215Z,1019.12
2023-04-09T05:01:33.345Z,1019.14
2023-04-09T05:02:33.310Z,1019.18
2023-04-09T05:03:33.327Z,1019.14
2023-04-09T05:04:33.166Z,1019.07
2023-04-09T05:05:33.161Z,1019.17
2023-04-09T05:06:33.162Z,1019.16
2023-04-09T05:07:33.139Z,1019.18
2023-04-09T05:08:33.138Z,1019.18
2023-04-09T05:09:33.125Z,1019.24
2023-04-09T05:10:33.106Z,1019.26
2023-04-09T05:11:33.105Z,1019.20
2023-04-09T05:12:33.083Z,1019.23
2023-04-09T05:13:33.068Z,1019.20
2023-04-09T05:14:33.080Z,1019.22
2023-04-09T05:15:33.052Z,1019.21
2023-04-09T05:16:33.335Z,1019.25
2023-04-09T05:17:33.058Z,1019.18
2023-04-09T05:18:33.026Z,1019.23
2023-04-09T05:19:33.003Z,1019.16
2023-04-09T05:20:32.994Z,1019.19
2023-04-09T05:21:32.983Z,1019.18
2023-04-09T05:22:32.971Z,1019.23
2023-04-09T05:23:32.962Z,1019.21
2023-04-09T05:24:32.945Z,1019.20
2023-04-09T05:25:32.962Z,1019.24
2023-04-09T05:26:32.930Z,1019.23
2023-04-09T05:27:32.920Z,1019.22
2023-04-09T05:28:32.918Z,1019.23
2023-04-09T05:29:32.892Z,1019.26
2023-04-09T05:30:33.060Z,1019.22
2023-04-09T05:31:32.874Z,1019.21
2023-04-09T05:32:32.884Z,1019.23
2023-04-09T05:33:32.842Z,1019.26
2023-04-09T05:34:32.837Z,1019.22
2023-04-09T05:35:32.859Z,1019.31
2023-04-09T05:36:32.821Z,1019.20
2023-04-09T05:37:32.821Z,1019.28
2023-04-09T05:38:32.796Z,1019.24
2023-04-09T05:39:32.776Z,1019.24
2023-04-09T05:40:32.769Z,1019.26
2023-04-09T05:41:32.788Z,1019.27
2023-04-09T05:42:32.758Z,1019.24
2023-04-09T05:43:32.734Z,1019.28
2023-04-09T05:44:32.738Z,1019.24
2023-04-09T05:45:32.740Z,1019.20
2023-04-09T05:46:32.743Z,1019.30
2023-04-09T05:47:32.737Z,1019.26
2023-04-09T05:48:32.710Z,1019.28
2023-04-09T05:49:32.666Z,1019.33
2023-04-09T05:50:40.700Z,1019.29
2023-04-09T05:51:33.644Z,1019.25
2023-04-09T05:52:32.638Z,1019.31
2023-04-09T05:53:32.644Z,1019.25
2023-04-09T05:54:32.638Z,1019.30
2023-04-09T05:55:32.599Z,1019.26
2023-04-09T05:56:32.590Z,1019.30
2023-04-09T05:57:32.578Z,1019.25
2023-04-09T05:58:32.571Z,1019.27
2023-04-09T05:59:32.574Z,1019.22
2023-04-09T06:00:32.563Z,1019.17
2023-04-09T06:01:32.580Z,1019.16
2023-04-09T06:02:32.609Z,1019.22
2023-04-09T06:03:32.625Z,1019.22
2023-04-09T06:04:32.545Z,1019.22
2023-04-09T06:05:32.500Z,1019.20
2023-04-09T06:06:32.490Z,1019.23
2023-04-09T06:07:32.467Z,1019.22
2023-04-09T06:08:32.469Z,1019.24
2023-04-09T06:09:32.449Z,1019.16
2023-04-09T06:10:32.447Z,1019.19
2023-04-09T06:11:32.447Z,1019.17
2023-04-09T06:12:32.445Z,1019.09
2023-04-09T06:13:32.411Z,1019.13
2023-04-09T06:14:32.392Z,1019.15
2023-04-09T06:15:32.511Z,1019.16
2023-04-09T06:16:32.377Z,1019.06
2023-04-09T06:17:32.379Z,1019.05
2023-04-09T06:18:32.372Z,1019.10
2023-04-09T06:19:32.361Z,1019.09
2023-04-09T06:20:32.327Z,1019.09
2023-04-09T06:21:32.334Z,1019.16
2023-04-09T06:22:32.317Z,1019.13
2023-04-09T06:23:32.298Z,1019.14
2023-04-09T06:24:32.284Z,1019.23
2023-04-09T06:25:32.272Z,1019.22
2023-04-09T06:26:32.259Z,1019.16
2023-04-09T06:27:32.251Z,1019.17
2023-04-09T06:28:32.251Z,1019.24
2023-04-09T06:29:32.248Z,1019.21
2023-04-09T06:30:32.220Z,1019.17
2023-04-09T06:31:32.248Z,1019.24
2023-04-09T06:32:37.731Z,1019.30
2023-04-09T06:33:33.178Z,1019.22
2023-04-09T06:34:32.222Z,1019.30
2023-04-09T06:35:32.270Z,1019.26
2023-04-09T06:36:32.147Z,1019.33
2023-04-09T06:37:32.148Z,1019.37
2023-04-09T06:38:32.125Z,1019.37
2023-04-09T06:39:32.142Z,1019.32
2023-04-09T06:40:32.113Z,1019.41
2023-04-09T06:41:32.113Z,1019.45
2023-04-09T06:42:32.093Z,1019.36
2023-04-09T06:43:32.072Z,1019.45
2023-04-09T06:44:32.064Z,1019.51
2023-04-09T06:45:32.054Z,1019.41
2023-04-09T06:46:32.118Z,1019.43
2023-04-09T06:47:32.038Z,1019.48
2023-04-09T06:48:32.011Z,1019.44
2023-04-09T06:49:32.009Z,1019.48
2023-04-09T06:50:32.028Z,1019.45
2023-04-09T06:51:31.995Z,1019.52
2023-04-09T06:52:32.008Z,1019.53
2023-04-09T06:53:32.024Z,1019.51
2023-04-09T06:54:31.949Z,1019.49
2023-04-09T06:55:31.939Z,1019.50
2023-04-09T06:56:31.924Z,1019.56
2023-04-09T06:57:31.948Z,1019.56
2023-04-09T06:58:31.905Z,1019.49
2023-04-09T06:59:31.882Z,1019.58
2023-04-09T07:00:31.912Z,1019.57
2023-04-09T07:01:31.991Z,1019.57
2023-04-09T07:02:32.065Z,1019.56
2023-04-09T07:03:32.190Z,1019.54
2023-04-09T07:04:31.926Z,1019.54
2023-04-09T07:05:31.834Z,1019.62
2023-04-09T07:06:31.846Z,1019.59
2023-04-09T07:07:31.813Z,1019.58
2023-04-09T07:08:31.816Z,1019.62
2023-04-09T07:09:31.791Z,1019.63
2023-04-09T07:10:31.777Z,1019.65
2023-04-09T07:11:31.774Z,1019.59
2023-04-09T07:12:31.745Z,1019.58
2023-04-09T07:13:31.750Z,1019.64
2023-04-09T07:14:31.760Z,1019.61
2023-04-09T07:15:31.724Z,1019.62
2023-04-09T07:16:31.771Z,1019.51
2023-04-09T07:17:31.706Z,1019.60
2023-04-09T07:18:31.699Z,1019.55
2023-04-09T07:19:31.675Z,1019.52
2023-04-09T07:20:31.656Z,1019.58
2023-04-09T07:21:31.642Z,1019.64
2023-04-09T07:22:31.658Z,1019.59
2023-04-09T07:23:31.620Z,1019.58
2023-04-09T07:24:31.616Z,1019.59
2023-04-09T07:25:31.601Z,1019.59
2023-04-09T07:26:31.604Z,1019.59
2023-04-09T07:27:31.597Z,1019.48
2023-04-09T07:28:31.565Z,1019.48
2023-04-09T07:29:31.571Z,1019.46
2023-04-09T07:30:31.550Z,1019.50
2023-04-09T07:31:32.795Z,1019.54
2023-04-09T07:32:31.590Z,1019.46
2023-04-09T07:33:31.531Z,1019.55
2023-04-09T07:34:31.506Z,1019.46
2023-04-09T07:35:31.555Z,1019.53
2023-04-09T07:36:31.477Z,1019.57
2023-04-09T07:37:31.465Z,1019.61
2023-04-09T07:38:31.480Z,1019.53
2023-04-09T07:39:31.443Z,1019.54
2023-04-09T07:40:31.441Z,1019.55
2023-04-09T07:41:31.418Z,1019.54
2023-04-09T07:42:31.425Z,1019.55
2023-04-09T07:43:31.420Z,1019.47
2023-04-09T07:44:31.389Z,1019.54
2023-04-09T07:45:31.375Z,1019.58
2023-04-09T07:46:31.404Z,1019.53
2023-04-09T07:47:31.379Z,1019.52
2023-04-09T07:48:31.354Z,1019.58
2023-04-09T07:49:31.345Z,1019.55
2023-04-09T07:50:31.342Z,1019.59
2023-04-09T07:51:31.308Z,1019.58
2023-04-09T07:52:31.337Z,1019.58
2023-04-09T07:53:31.285Z,1019.59
2023-04-09T07:54:31.302Z,1019.52
2023-04-09T07:55:31.289Z,1019.61
2023-04-09T07:56:31.313Z,1019.57
2023-04-09T07:57:31.244Z,1019.61
2023-04-09T07:58:31.252Z,1019.60
2023-04-09T07:59:31.223Z,1019.57
2023-04-09T08:00:31.217Z,1019.59
2023-04-09T08:01:31.221Z,1019.57
2023-04-09T08:02:31.423Z,1019.58
2023-04-09T08:03:31.533Z,1019.55
2023-04-09T08:04:31.302Z,1019.58
2023-04-09T08:05:31.185Z,1019.59
2023-04-09T08:06:31.143Z,1019.59
2023-04-09T08:07:31.144Z,1019.66
2023-04-09T08:08:31.121Z,1019.59
2023-04-09T08:09:31.122Z,1019.61
2023-04-09T08:10:31.125Z,1019.60
2023-04-09T08:11:31.105Z,1019.61
2023-04-09T08:12:31.125Z,1019.59
2023-04-09T08:13:31.065Z,1019.58
2023-04-09T08:14:31.067Z,1019.53
2023-04-09T08:15:31.043Z,1019.61
2023-04-09T08:16:31.056Z,1019.55
2023-04-09T08:17:31.101Z,1019.62
2023-04-09T08:18:31.023Z,1019.66
2023-04-09T08:19:30.998Z,1019.57
2023-04-09T08:20:30.994Z,1019.59
2023-04-09T08:21:30.974Z,1019.60
2023-04-09T08:22:30.984Z,1019.61
2023-04-09T08:23:31.518Z,1019.61
2023-04-09T08:24:30.947Z,1019.64
2023-04-09T08:25:30.946Z,1019.59
2023-04-09T08:26:30.949Z,1019.68
2023-04-09T08:27:30.913Z,1019.62
2023-04-09T08:28:30.917Z,1019.61
2023-04-09T08:29:30.906Z,1019.63
2023-04-09T08:30:30.889Z,1019.64
2023-04-09T08:31:30.902Z,1019.63
2023-04-09T08:32:30.959Z,1019.66
2023-04-09T08:33:30.844Z,1019.64
2023-04-09T08:34:30.994Z,1019.67
2023-04-09T08:35:30.827Z,1019.59
2023-04-09T08:36:30.852Z,1019.66
2023-04-09T08:37:30.912Z,1019.64
2023-04-09T08:38:30.786Z,1019.66
2023-04-09T08:39:30.776Z,1019.62
2023-04-09T08:40:30.769Z,1019.63
2023-04-09T08:41:30.783Z,1019.62
2023-04-09T08:42:30.767Z,1019.63
2023-04-09T08:43:47.293Z,1019.59
2023-04-09T08:44:31.737Z,1019.58
2023-04-09T08:45:30.759Z,1019.56
2023-04-09T08:46:30.700Z,1019.61
2023-04-09T08:47:30.786Z,1019.66
2023-04-09T08:48:30.795Z,1019.65
2023-04-09T08:49:30.669Z,1019.63
2023-04-09T08:50:30.668Z,1019.59
2023-04-09T08:51:30.663Z,1019.60
2023-04-09T08:52:30.633Z,1019.60
2023-04-09T08:53:30.631Z,1019.49
2023-04-09T08:54:30.660Z,1019.52
2023-04-09T08:55:30.608Z,1019.45
2023-04-09T08:56:30.618Z,1019.56
2023-04-09T08:57:30.596Z,1019.50
2023-04-09T08:58:30.596Z,1019.52
2023-04-09T08:59:30.562Z,1019.45
2023-04-09T09:00:30.569Z,1019.43
2023-04-09T09:01:30.679Z,1019.44
2023-04-09T09:02:30.664Z,1019.42
2023-04-09T09:03:30.661Z,1019.45
2023-04-09T09:04:30.651Z,1019.43
2023-04-09T09:05:30.502Z,1019.43
2023-04-09T09:06:30.473Z,1019.43
2023-04-09T09:07:30.460Z,1019.43
2023-04-09T09:08:30.460Z,1019.40
2023-04-09T09:09:30.453Z,1019.45
2023-04-09T09:10:30.446Z,1019.44
2023-04-09T09:11:30.416Z,1019.43
2023-04-09T09:12:30.429Z,1019.44
2023-04-09T09:13:30.407Z,1019.42
2023-04-09T09:14:30.406Z,1019.45
2023-04-09T09:15:30.394Z,1019.46
2023-04-09T09:16:30.460Z,1019.46
2023-04-09T09:17:30.430Z,1019.40
2023-04-09T09:18:30.346Z,1019.41
2023-04-09T09:19:30.370Z,1019.43
2023-04-09T09:20:30.329Z,1019.51
2023-04-09T09:21:30.309Z,1019.53
2023-04-09T09:22:30.305Z,1019.44
2023-04-09T09:23:30.285Z,1019.43
2023-04-09T09:24:30.293Z,1019.47
2023-04-09T09:25:30.276Z,1019.41
2023-04-09T09:26:30.253Z,1019.43
2023-04-09T09:27:30.254Z,1019.47
2023-04-09T09:28:30.228Z,1019.53
2023-04-09T09:29:30.251Z,1019.50
2023-04-09T09:30:30.236Z,1019.44
2023-04-09T09:31:30.265Z,1019.47
2023-04-09T09:32:30.288Z,1019.47
2023-04-09T09:33:30.178Z,1019.49
2023-04-09T09:34:30.166Z,1019.42
2023-04-09T09:35:30.192Z,1019.47
2023-04-09T09:36:30.162Z,1019.49
2023-04-09T09:37:30.145Z,1019.43
2023-04-09T09:38:30.130Z,1019.45
2023-04-09T09:39:30.121Z,1019.44
2023-04-09T09:40:30.114Z,1019.39
2023-04-09T09:41:30.090Z,1019.39
2023-04-09T09:42:30.098Z,1019.36
2023-04-09T09:43:30.092Z,1019.32
2023-04-09T09:44:30.093Z,1019.38
2023-04-09T09:45:30.054Z,1019.41
2023-04-09T09:46:30.115Z,1019.36
2023-04-09T09:47:30.051Z,1019.36
2023-04-09T09:48:30.043Z,1019.34
2023-04-09T09:49:30.010Z,1019.32
2023-04-09T09:50:29.994Z,1019.31
2023-04-09T09:51:30.003Z,1019.25
2023-04-09T09:52:29.974Z,1019.31
2023-04-09T09:53:30.005Z,1019.27
2023-04-09T09:54:29.957Z,1019.27
2023-04-09T09:55:29.942Z,1019.21
2023-04-09T09:56:29.933Z,1019.17
2023-04-09T09:57:29.911Z,1019.22
2023-04-09T09:58:29.909Z,1019.14
2023-04-09T09:59:29.911Z,1019.15
2023-04-09T10:00:29.887Z,1019.13
2023-04-09T10:01:29.909Z,1019.11
2023-04-09T10:02:29.963Z,1019.09
2023-04-09T10:03:29.875Z,1019.17
2023-04-09T10:04:29.885Z,1019.14
2023-04-09T10:05:29.860Z,1019.15
2023-04-09T10:06:29.831Z,1019.06
2023-04-09T10:07:29.802Z,1019.06
2023-04-09T10:08:29.793Z,1019.08
2023-04-09T10:09:29.779Z,1019.07
2023-04-09T10:10:29.765Z,1019.07
2023-04-09T10:11:29.784Z,1019.07
2023-04-09T10:12:29.741Z,1019.07
2023-04-09T10:13:29.787Z,1019.08
2023-04-09T10:14:29.719Z,1019.00
2023-04-09T10:15:29.710Z,1018.99
2023-04-09T10:16:29.882Z,1019.02
2023-04-09T10:17:29.753Z,1018.96
2023-04-09T10:18:29.696Z,1018.98
2023-04-09T10:19:29.667Z,1019.02
2023-04-09T10:20:29.665Z,1019.04
2023-04-09T10:21:29.656Z,1019.00
2023-04-09T10:22:29.633Z,1018.98
2023-04-09T10:23:29.642Z,1018.99
2023-04-09T10:24:29.605Z,1018.94
2023-04-09T10:25:29.607Z,1018.91
2023-04-09T10:26:29.615Z,1019.04
2023-04-09T10:27:29.581Z,1019.02
2023-04-09T10:28:29.573Z,1019.12
2023-04-09T10:29:29.580Z,1018.92
2023-04-09T10:30:29.540Z,1018.93
2023-04-09T10:31:29.563Z,1018.94
2023-04-09T10:32:29.580Z,1018.95
2023-04-09T10:33:29.514Z,1019.00
2023-04-09T10:34:29.530Z,1018.92
2023-04-09T10:35:29.514Z,1018.94
2023-04-09T10:36:29.480Z,1018.87
2023-04-09T10:37:29.469Z,1018.89
2023-04-09T10:38:29.503Z,1018.94
2023-04-09T10:39:29.448Z,1018.94
2023-04-09T10:40:29.560Z,1019.05
2023-04-09T10:41:29.421Z,1018.92
2023-04-09T10:42:29.413Z,1018.89
2023-04-09T10:43:29.411Z,1018.96
2023-04-09T10:44:29.381Z,1018.95
2023-04-09T10:45:29.378Z,1018.90
2023-04-09T10:46:29.426Z,1018.88
2023-04-09T10:47:29.415Z,1018.83
2023-04-09T10:48:29.350Z,1018.79
2023-04-09T10:49:29.363Z,1018.90
2023-04-09T10:50:29.364Z,1018.73
2023-04-09T10:51:29.320Z,1018.78
2023-04-09T10:52:29.298Z,1018.84
2023-04-09T10:53:29.313Z,1018.88
2023-04-09T10:54:37.397Z,1018.88
2023-04-09T10:55:29.280Z,1018.87
2023-04-09T10:56:29.248Z,1018.86
2023-04-09T10:57:29.288Z,1018.84
2023-04-09T10:58:29.244Z,1018.80
2023-04-09T10:59:29.237Z,1018.83
2023-04-09T11:00:29.221Z,1018.81
2023-04-09T11:01:29.243Z,1018.79
2023-04-09T11:02:29.328Z,1018.78
2023-04-09T11:03:29.294Z,1018.74
2023-04-09T11:04:29.234Z,1018.80
2023-04-09T11:05:29.157Z,1018.70
2023-04-09T11:06:29.164Z,1018.77
2023-04-09T11:07:29.132Z,1018.74
2023-04-09T11:08:29.118Z,1018.80
2023-04-09T11:09:29.132Z,1018.77
2023-04-09T11:10:29.107Z,1018.81
2023-04-09T11:11:29.097Z,1018.75
2023-04-09T11:12:29.074Z,1018.72
2023-04-09T11:13:29.071Z,1018.76
2023-04-09T11:14:29.062Z,1018.64
2023-04-09T11:15:29.050Z,1018.68
2023-04-09T11:16:29.254Z,1018.65
2023-04-09T11:17:29.064Z,1018.62
2023-04-09T11:18:29.001Z,1018.61
2023-04-09T11:19:29.028Z,1018.68
2023-04-09T11:20:29.022Z,1018.75
2023-04-09T11:21:28.981Z,1018.65
2023-04-09T11:22:28.975Z,1018.61
2023-04-09T11:23:28.946Z,1018.59
2023-04-09T11:24:28.933Z,1018.60
2023-04-09T11:25:28.943Z,1018.57
2023-04-09T11:26:28.925Z,1018.59
2023-04-09T11:27:28.923Z,1018.56
2023-04-09T11:28:28.904Z,1018.51
2023-04-09T11:29:28.892Z,1018.50
2023-04-09T11:30:28.919Z,1018.60
2023-04-09T11:31:28.896Z,1018.49
2023-04-09T11:32:28.874Z,1018.39
2023-04-09T11:33:28.834Z,1018.56
2023-04-09T11:34:28.827Z,1018.60
2023-04-09T11:35:28.829Z,1018.49
2023-04-09T11:36:28.829Z,1018.51
2023-04-09T11:37:28.815Z,1018.55
2023-04-09T11:38:28.815Z,1018.50
2023-04-09T11:39:28.769Z,1018.49
2023-04-09T11:40:28.763Z,1018.43
2023-04-09T11:41:28.755Z,1018.48
2023-04-09T11:42:28.731Z,1018.38
2023-04-09T11:43:28.724Z,1018.45
2023-04-09T11:44:28.769Z,1018.49
2023-04-09T11:45:28.716Z,1018.52
2023-04-09T11:46:28.751Z,1018.49
2023-04-09T11:47:28.711Z,1018.43
2023-04-09T11:48:28.699Z,1018.38
2023-04-09T11:49:28.664Z,1018.32
2023-04-09T11:50:28.655Z,1018.31
2023-04-09T11:51:28.636Z,1018.28
2023-04-09T11:52:28.624Z,1018.45
2023-04-09T11:53:28.616Z,1018.34
2023-04-09T11:54:28.723Z,1018.38
2023-04-09T11:55:28.602Z,1018.39
2023-04-09T11:56:28.577Z,1018.39
2023-04-09T11:57:28.580Z,1018.40
2023-04-09T11:58:28.565Z,1018.52
2023-04-09T11:59:28.547Z,1018.43
2023-04-09T12:00:28.557Z,1018.44
2023-04-09T12:01:28.550Z,1018.41
2023-04-09T12:02:28.649Z,1018.42
2023-04-09T12:03:28.727Z,1018.35
2023-04-09T12:04:28.624Z,1018.37
2023-04-09T12:05:28.493Z,1018.30